Terminal Aerodrome Forecast
Issued by NWS Goodland, KS

Current Version | Previous Version | Text Only | Print | Product List | Glossary On
Versions: 1 2 3 4 5 6 7 8 9 10 11 12 13 14
000
FTUS43 KGLD 231720
TAFGLD
TAF
KGLD 231720Z 2318/2418 VRB06KT P6SM SKC
     FM232200 11008KT P6SM SKC
     FM240300 17007KT P6SM SKC
     FM240800 21008KT P6SM FEW250=

USA.gov is the U.S. government's official web portal to all federal, state and local government web resources and services.